Latest Weather Observations for Parndana

IDS60801

Issued at 4:02 pm CDT Thursday 8 December 2016 (issued every 30 minutes, with the page automatically refreshed every 10 minutes)

About weather observations | Map of weather stations | Latest weather observations for SA | Other Formats
Station Details ID: 022843 Name: PARNDANA CFS AWS Lat: -35.79 Lon: 137.25 Height: 165.0 m
Data from the previous 72 hours. | See also: Recent months at Parndana
Date/Time
CDT
Temp
°C
App
Temp
°C
Dew
Point
°C
Rel
Hum
%
Delta-T
°C
Wind Press
QNH
hPa
Press
MSL
hPa
Rain since
9am
mm
Dir  Spd
km/h
Gust
km/h
Spd
kts
Gust
kts
08/04:00pm 18.0 10.9 6.5 47 5.7 SW 33 50 18 27 - - 0.2
08/03:31pm 17.6 9.9 3.5 39 6.6 SW 33 54 18 29 - - 0.2
08/03:30pm 17.6 9.5 3.1 38 6.7 SW 35 54 19 29 - - 0.2
08/03:29pm 18.8 11.1 3.4 36 7.3 SW 33 54 18 29 - - 0.2
08/03:00pm 18.2 10.6 5.8 44 6.1 WSW 35 48 19 26 - - 0.2
08/02:30pm 19.2 10.6 4.9 39 7.0 WSW 39 57 21 31 - - 0.2
08/02:10pm 18.1 9.8 6.0 45 6.0 WSW 39 57 21 31 - - 0.2
08/02:00pm 17.9 8.6 6.1 46 5.8 SW 44 57 24 31 - - 0.2
08/01:38pm 16.0 7.9 7.0 55 4.5 SW 39 57 21 31 - - 0.2
08/01:30pm 15.5 6.8 7.5 59 4.0 SW 43 59 23 32 - - 0.2
08/01:21pm 17.4 10.3 8.0 54 4.8 SW 35 54 19 29 - - 0.2
08/01:04pm 18.6 10.8 6.8 46 6.0 WSW 37 57 20 31 - - 0.2
08/01:00pm 18.9 11.8 8.0 49 5.6 WSW 35 50 19 27 - - 0.2
08/12:30pm 17.5 8.4 6.1 47 5.6 SW 43 70 23 38 - - 0.2
08/12:25pm 18.2 9.2 6.4 46 5.9 WSW 43 70 23 38 - - 0.2
08/12:24pm 18.6 9.9 7.7 49 5.6 WSW 43 61 23 33 - - 0.2
08/12:00pm 13.5 5.4 8.8 73 2.4 WSW 41 61 22 33 - - 0.2
08/11:34am 17.4 9.9 8.0 54 4.8 WSW 37 59 20 32 - - 0.2
08/11:30am 16.6 8.8 8.3 58 4.3 WSW 39 52 21 28 - - 0.2
08/11:06am 13.4 5.8 10.6 83 1.5 WSW 41 59 22 32 - - 0.2
08/11:00am 15.5 6.8 8.5 63 3.6 WSW 44 61 24 33 - - 0.0
08/10:35am 18.3 9.7 6.5 46 5.9 WSW 41 61 22 33 - - 0.0
08/10:30am 16.8 7.5 5.7 48 5.4 WSW 44 61 24 33 - - 0.0
08/10:27am 17.0 8.1 5.3 46 5.7 WSW 41 61 22 33 - - 0.0
08/10:00am 16.4 9.6 7.9 57 4.3 WSW 33 46 18 25 - - 0.0
08/09:39am 16.8 9.1 6.9 52 4.9 WSW 37 57 20 31 - - 0.0
08/09:30am 15.8 8.8 8.3 61 3.8 WSW 35 50 19 27 - - 0.0
08/09:00am 13.8 6.7 8.0 68 2.9 WSW 35 50 19 27 - - 0.2
08/08:33am 14.0 8.5 9.2 73 2.5 WSW 28 50 15 27 - - 0.2
08/08:30am 14.1 9.9 9.9 76 2.2 WSW 22 39 12 21 - - 0.2
08/08:00am 11.9 7.3 9.5 85 1.2 WSW 24 39 13 21 - - 0.2
08/07:30am 13.8 7.2 7.8 67 3.0 W 32 41 17 22 - - 0.0
08/07:00am 13.0 8.3 7.7 70 2.6 W 22 35 12 19 - - 0.0
08/06:30am 12.1 6.9 7.2 72 2.4 W 24 39 13 21 - - 0.0
08/06:00am 12.5 6.6 7.6 72 2.4 W 28 43 15 23 - - 0.0
08/05:30am 12.7 7.3 8.2 74 2.2 W 26 39 14 21 - - 0.0
08/05:00am 12.6 6.3 7.3 70 2.6 WSW 30 35 16 19 - - 0.0
08/04:33am 12.7 6.9 8.0 73 2.3 WSW 28 48 15 26 - - 0.0
08/04:30am 12.8 7.5 8.5 75 2.2 WSW 26 37 14 20 - - 0.0
08/04:00am 12.7 6.6 8.2 74 2.2 WSW 30 46 16 25 - - 0.0
08/03:44am 12.9 6.5 8.4 74 2.3 WSW 32 52 17 28 - - 0.0
08/03:30am 13.0 6.6 8.5 74 2.3 WSW 32 50 17 27 - - 0.0
08/03:00am 13.0 6.5 8.3 73 2.4 WSW 32 52 17 28 - - 0.0
08/02:30am 13.6 5.8 9.6 77 2.1 WSW 41 70 22 38 - - 0.0
08/02:00am 15.1 7.8 11.7 80 1.8 WSW 41 63 22 34 - - 0.0
08/01:30am 16.1 8.4 12.1 77 2.2 WSW 44 67 24 36 - - 0.0
08/01:20am 16.4 9.5 12.8 79 2.0 W 41 59 22 32 - - 0.0
08/01:00am 16.9 10.0 14.0 83 1.7 W 43 59 23 32 - - 0.0
08/12:30am 17.4 12.2 13.3 77 2.3 WNW 33 54 18 29 - - 0.0
08/12:00am 19.7 13.7 13.2 66 3.7 WNW 37 57 20 31 - - 0.0
 
Date/Time
CDT
Temp
°C
App
Temp
°C
Dew
Point
°C
Rel
Hum
%
Delta-T
°C
Wind Press
QNH
hPa
Press
MSL
hPa
Rain since
9am
mm
Dir  Spd
km/h
Gust
km/h
Spd
kts
Gust
kts
07/11:57pm 19.9 13.9 13.4 66 3.7 W 37 57 20 31 - - 0.0
07/11:52pm 20.1 14.6 13.6 66 3.8 W 35 57 19 31 - - 0.0
07/11:30pm 20.5 18.4 14.6 69 3.5 WSW 19 35 10 19 - - 0.0
07/11:00pm 19.2 18.1 14.2 73 2.9 W 13 17 7 9 - - 0.0
07/10:30pm 19.4 19.7 14.6 74 2.8 W 6 9 3 5 - - 0.0
07/10:00pm 19.4 19.5 14.4 73 2.9 WNW 7 11 4 6 - - 0.0
07/09:30pm 20.2 19.4 14.1 68 3.6 N 11 15 6 8 - - 0.0
07/09:00pm 20.6 19.3 13.8 65 3.9 NE 13 15 7 8 - - 0.0
07/08:30pm 20.8 20.0 12.8 60 4.6 N 9 9 5 5 - - 0.0
07/08:00pm 22.1 21.6 12.6 55 5.4 NNW 7 9 4 5 - - 0.0
07/07:30pm 23.5 23.0 12.8 51 6.2 NW 7 9 4 5 - - 0.0
07/07:00pm 24.5 23.2 12.5 47 6.9 NNW 11 19 6 10 - - 0.0
07/06:30pm 25.5 23.4 12.4 44 7.6 N 15 22 8 12 - - 0.0
07/06:00pm 26.3 24.1 12.0 41 8.3 N 15 24 8 13 - - 0.0
07/05:30pm 27.2 24.1 10.4 35 9.5 NNW 17 26 9 14 - - 0.0
07/05:00pm 26.9 23.8 8.8 32 9.9 N 15 20 8 11 - - 0.0
07/04:30pm 26.6 23.2 7.6 30 10.2 NNW 15 24 8 13 - - 0.0
07/04:00pm 26.9 22.4 6.3 27 10.8 NW 19 26 10 14 - - 0.0
07/03:30pm 27.2 22.9 7.1 28 10.7 NNW 19 28 10 15 - - 0.0
07/03:00pm 27.6 23.0 6.4 26 11.2 NW 20 30 11 16 - - 0.0
07/02:30pm 26.7 22.4 7.7 30 10.2 NW 20 33 11 18 - - 0.0
07/02:00pm 27.1 23.0 8.5 31 10.2 NNW 20 35 11 19 - - 0.0
07/01:30pm 26.1 21.8 7.7 31 9.9 NNW 20 35 11 19 - - 0.0
07/01:00pm 26.2 22.1 7.7 31 9.9 N 19 32 10 17 - - 0.0
07/12:30pm 24.7 20.4 6.9 32 9.3 NNW 19 28 10 15 - - 0.0
07/12:00pm 24.3 20.2 7.9 35 8.7 N 19 32 10 17 - - 0.0
07/11:30am 23.0 18.8 8.3 39 7.8 N 20 28 11 15 - - 0.0
07/11:00am 22.4 18.6 9.2 43 7.1 NNE 19 28 10 15 - - 0.0
07/10:30am 20.9 18.0 9.5 48 6.1 NNE 15 24 8 13 - - 0.0
07/10:00am 20.7 17.3 9.0 47 6.2 NNE 17 26 9 14 - - 0.0
07/09:30am 19.3 16.6 10.3 56 4.9 NNE 15 22 8 12 - - 0.0
07/09:00am 16.8 14.1 10.2 65 3.5 NE 15 20 8 11 - - 0.0
07/08:30am 17.1 14.6 9.8 62 3.9 NE 13 17 7 9 - - 0.0
07/08:00am 15.2 13.6 11.4 78 2.1 NE 11 15 6 8 - - 0.0
07/07:30am 12.6 12.2 11.0 90 0.8 ENE 4 7 2 4 - - 0.0
07/07:00am 9.2 8.0 8.1 93 0.5 NNE 4 4 2 2 - - 0.0
07/06:30am 8.8 7.1 7.7 93 0.5 NNE 6 6 3 3 - - 0.0
07/06:00am 8.3 6.6 7.5 95 0.4 NE 6 7 3 4 - - 0.0
07/05:30am 8.5 6.9 7.9 96 0.3 ENE 6 7 3 4 - - 0.0
07/05:00am 8.5 6.7 7.9 96 0.3 E 7 7 4 4 - - 0.0
07/04:30am 8.1 6.4 7.5 96 0.3 ESE 6 6 3 3 - - 0.0
07/04:00am 7.3 5.8 6.7 96 0.3 E 4 6 2 3 - - 0.0
07/03:30am 8.4 7.1 7.8 96 0.3 ESE 4 4 2 2 - - 0.0
07/03:00am 7.8 6.4 7.2 96 0.3 ESE 4 4 2 2 - - 0.0
07/02:30am 7.9 6.5 7.1 95 0.4 ESE 4 4 2 2 - - 0.0
07/02:00am 7.3 6.0 6.2 93 0.5 ESE 2 4 1 2 - - 0.0
07/01:30am 8.4 7.1 7.5 94 0.4 ESE 4 6 2 3 - - 0.0
07/01:00am 8.5 7.1 7.4 93 0.5 ESE 4 4 2 2 - - 0.0
07/12:30am 8.8 7.7 6.8 87 0.9 E 2 4 1 2 - - 0.0
07/12:00am 10.5 9.3 8.1 85 1.2 E 4 6 2 3 - - 0.0
 
Date/Time
CDT
Temp
°C
App
Temp
°C
Dew
Point
°C
Rel
Hum
%
Delta-T
°C
Wind Press
QNH
hPa
Press
MSL
hPa
Rain since
9am
mm
Dir  Spd
km/h
Gust
km/h
Spd
kts
Gust
kts
06/11:30pm 10.4 8.8 8.0 85 1.2 ESE 6 6 3 3 - - 0.0
06/11:00pm 10.0 8.7 7.6 85 1.2 SSE 4 6 2 3 - - 0.0
06/10:30pm 10.5 8.7 7.2 80 1.6 SSE 6 6 3 3 - - 0.0
06/10:00pm 11.1 9.4 7.6 79 1.7 SSE 6 7 3 4 - - 0.0
06/09:30pm 11.4 9.7 7.5 77 1.9 S 6 7 3 4 - - 0.0
06/09:00pm 11.6 9.3 7.3 75 2.1 S 9 11 5 6 - - 0.0
06/08:30pm 12.9 10.6 7.6 70 2.6 SSE 9 11 5 6 - - 0.0
06/08:00pm 15.2 12.5 7.5 60 3.8 SSE 11 15 6 8 - - 0.0
06/07:30pm 16.1 12.6 7.1 55 4.5 S 15 19 8 10 - - 0.0
06/07:00pm 17.3 14.1 6.8 50 5.3 S 13 19 7 10 - - 0.0
06/06:30pm 19.6 15.7 7.0 44 6.4 S 17 22 9 12 - - 0.0
06/06:00pm 20.2 18.0 6.2 40 7.1 SE 7 15 4 8 - - 0.0
06/05:30pm 20.2 16.7 5.4 38 7.3 SE 13 24 7 13 - - 0.0
06/05:00pm 20.9 18.2 7.2 41 7.1 NNE 11 28 6 15 - - 0.0
06/04:30pm 21.4 19.1 5.7 36 7.9 ESE 7 15 4 8 - - 0.0
06/04:00pm 20.4 18.1 5.6 38 7.4 W 7 22 4 12 - - 0.0
06/03:30pm 20.7 17.3 7.7 43 6.8 N 15 24 8 13 - - 0.0
06/03:00pm 21.6 18.8 5.1 34 8.2 ESE 9 20 5 11 - - 0.0
06/02:30pm 21.8 17.5 5.3 34 8.3 E 17 24 9 13 - - 0.0
06/02:00pm 20.3 17.4 4.4 35 7.7 SSW 9 19 5 10 - - 0.0
06/01:30pm 21.1 17.0 4.6 34 8.1 S 15 20 8 11 - - 0.0
06/01:00pm 20.5 17.6 4.9 36 7.7 S 9 17 5 9 - - 0.0
06/12:30pm 19.1 15.8 4.8 39 7.0 ESE 11 20 6 11 - - 0.0
06/12:00pm 19.9 16.4 5.5 39 7.1 SSW 13 26 7 14 - - 0.0
06/11:30am 19.6 15.8 6.0 41 6.8 S 15 28 8 15 - - 0.0
06/11:00am 18.7 15.9 5.2 41 6.6 WSW 9 19 5 10 - - 0.0
06/10:30am 18.4 15.5 6.6 46 5.9 SSW 11 20 6 11 - - 0.0
06/10:00am 17.3 15.4 7.4 52 5.0 SW 7 15 4 8 - - 0.0
06/09:30am 16.1 14.6 8.3 60 4.0 WSW 6 9 3 5 - - 0.0
06/09:00am 15.6 14.0 8.8 64 3.5 S 7 9 4 5 - - 0.0
06/08:30am 14.0 12.9 8.6 70 2.7 SSW 4 7 2 4 - - 0.0
06/08:00am 13.2 12.2 8.7 74 2.3 NW 4 4 2 2 - - 0.0
06/07:30am 11.5 10.9 9.1 85 1.2 NNW 2 4 1 2 - - 0.0
06/07:00am 9.2 7.4 8.1 93 0.5 WNW 7 7 4 4 - - 0.0
06/06:30am 8.0 6.5 6.9 93 0.5 NW 4 4 2 2 - - 0.0
06/06:00am 7.9 6.0 6.8 93 0.5 W 6 6 3 3 - - 0.0
06/05:30am 7.4 5.4 6.3 93 0.5 WSW 6 6 3 3 - - 0.0
06/05:00am 7.8 5.9 6.7 93 0.5 S 6 6 3 3 - - 0.0
06/04:30am 7.7 5.6 6.5 92 0.6 SSE 7 7 4 4 - - 0.0
06/04:00am 8.0 6.5 6.6 91 0.7 S 4 6 2 3 - - 0.0
06/03:30am 9.0 7.7 7.5 90 0.7 S 4 6 2 3 - - 0.0
06/03:00am 8.5 7.3 6.5 87 0.9 W 2 2 1 1 - - 0.0
06/02:30am 8.8 7.1 7.4 91 0.7 W 6 7 3 4 - - 0.0
06/02:00am 8.0 6.1 6.5 90 0.7 WSW 6 7 3 4 - - 0.0
06/01:30am 8.5 7.0 6.8 89 0.8 SW 4 6 2 3 - - 0.0
06/01:00am 9.6 8.1 7.0 84 1.2 S 4 4 2 2 - - 0.0
06/12:30am 9.7 7.8 6.8 82 1.4 SSE 6 6 3 3 - - 0.0
06/12:00am 9.2 7.3 6.8 85 1.1 SSE 6 6 3 3 - - 0.0
 
Date/Time
CDT
Temp
°C
App
Temp
°C
Dew
Point
°C
Rel
Hum
%
Delta-T
°C
Wind Press
QNH
hPa
Press
MSL
hPa
Rain since
9am
mm
Dir  Spd
km/h
Gust
km/h
Spd
kts
Gust
kts
05/11:30pm 9.6 8.2 7.2 85 1.1 S 4 6 2 3 - - 0.0
05/11:00pm 10.0 8.1 6.9 81 1.5 SE 6 6 3 3 - - 0.0
05/10:30pm 9.9 8.0 6.8 81 1.5 SE 6 7 3 4 - - 0.0
05/10:00pm 10.1 8.6 6.8 80 1.6 S 4 4 2 2 - - 0.0
05/09:30pm 10.2 8.3 6.5 78 1.7 SSE 6 7 3 4 - - 0.0
05/09:00pm 11.0 9.0 6.9 76 2.0 SSE 7 9 4 5 - - 0.0
05/08:30pm 11.8 9.4 6.9 72 2.4 S 9 13 5 7 - - 0.0
05/08:00pm 12.8 10.4 6.8 67 2.9 SSE 9 15 5 8 - - 0.0
05/07:30pm 14.4 10.5 7.0 61 3.6 SSE 17 20 9 11 - - 0.0
05/07:00pm 15.2 11.4 7.5 60 3.8 SSE 17 24 9 13 - - 0.0
05/06:30pm 16.1 12.7 7.6 57 4.3 S 15 20 8 11 - - 0.0
05/06:00pm 16.7 14.0 7.4 54 4.7 SSE 11 17 6 9 - - 0.0
05/05:30pm 16.8 13.3 7.2 53 4.8 SSE 15 28 8 15 - - 0.0
05/05:00pm 17.3 14.5 7.1 51 5.1 S 11 17 6 9 - - 0.0
05/04:30pm 17.4 14.1 8.0 54 4.8 SSE 15 20 8 11 - - 0.0

Other Formats:

Comma delimited format used in spreadsheet applications
http://www.bom.gov.au/fwo/IDS60801/IDS60801.94807.axf

JavaScript Object Notation format (JSON) in row-major order
http://www.bom.gov.au/fwo/IDS60801/IDS60801.94807.json